Time;durP1;ratioP1;P1;durP2;ratioP2;P2;SDS_P1;SDS_P2;PMS_P1;PMS_P2;Temp;Humidity;BMP_temperature;BMP_pressure;BME280_temperature;BME280_humidity;BME280_pressure;Samples;Min_cycle;Max_cycle;Signal;HPM_P1;HPM_P2
2022/11/28 00:01:12;;;;;;;10.25;5.32;;;7.00;99.90;;;;;;5070927;28;20389;-73
2022/11/28 00:03:37;;;;;;;9.45;5.38;;;6.90;99.90;;;;;;5071203;28;20056;-73
2022/11/28 00:06:05;;;;;;;8.30;4.70;;;6.90;99.90;;;;;;5072203;28;20047;-73
2022/11/28 00:08:31;;;;;;;9.45;5.07;;;6.90;99.90;;;;;;5072257;28;20028;-72
2022/11/28 00:10:57;;;;;;;8.80;4.78;;;6.90;99.90;;;;;;5070840;28;20036;-72
2022/11/28 00:13:22;;;;;;;9.63;4.38;;;6.90;99.90;;;;;;5050421;28;20058;-72
2022/11/28 00:15:59;;;;;;;9.73;5.18;;;7.00;99.90;;;;;;5051296;28;20048;-72
2022/11/28 00:18:25;;;;;;;9.18;4.88;;;7.00;99.90;;;;;;5035837;28;20102;-72
2022/11/28 00:20:50;;;;;;;9.25;4.63;;;6.90;99.90;;;;;;5052131;28;20507;-72
2022/11/28 00:23:16;;;;;;;8.77;4.63;;;7.10;99.90;;;;;;5047677;28;20040;-72
2022/11/28 00:25:42;;;;;;;7.70;3.83;;;7.00;99.90;;;;;;5055214;28;20075;-72
2022/11/28 00:28:07;;;;;;;9.88;4.63;;;6.90;99.90;;;;;;5071943;28;20032;-72
2022/11/28 00:30:37;;;;;;;8.70;4.88;;;7.00;99.90;;;;;;5072047;28;20119;-72
2022/11/28 00:33:02;;;;;;;9.07;4.30;;;7.10;99.90;;;;;;5053197;28;20052;-72
2022/11/28 00:35:28;;;;;;;9.93;4.30;;;7.10;99.90;;;;;;5069312;28;20124;-71
2022/11/28 00:37:54;;;;;;;8.95;4.63;;;7.10;99.90;;;;;;5070974;28;20063;-72
2022/11/28 00:40:19;;;;;;;9.15;4.15;;;7.20;99.90;;;;;;5042781;28;20120;-72
2022/11/28 00:42:45;;;;;;;9.32;4.93;;;7.10;99.90;;;;;;5044709;28;20036;-72
2022/11/28 00:45:10;;;;;;;8.75;4.70;;;7.10;99.90;;;;;;5053626;28;20407;-71
2022/11/28 00:47:36;;;;;;;10.30;4.75;;;7.20;99.90;;;;;;5054993;28;20098;-71
2022/11/28 00:50:02;;;;;;;9.77;4.53;;;7.10;99.90;;;;;;5053675;28;20113;-71
2022/11/28 00:52:27;;;;;;;7.85;3.47;;;7.20;99.90;;;;;;5055088;28;20072;-71
2022/11/28 00:54:53;;;;;;;8.38;4.68;;;7.20;99.90;;;;;;5071946;28;20083;-71
2022/11/28 00:57:19;;;;;;;9.82;5.28;;;7.20;99.90;;;;;;5070371;28;20032;-72
2022/11/28 00:59:44;;;;;;;9.02;4.63;;;7.20;99.90;;;;;;5055095;28;20044;-71
2022/11/28 01:02:10;;;;;;;10.25;5.07;;;7.10;99.90;;;;;;5056151;28;20119;-71
2022/11/28 01:04:35;;;;;;;8.10;4.38;;;7.10;99.90;;;;;;5051467;28;20068;-71
2022/11/28 01:07:01;;;;;;;11.07;5.15;;;7.10;99.90;;;;;;5054926;28;20119;-72
2022/11/28 01:09:26;;;;;;;8.65;4.53;;;7.20;99.90;;;;;;5067524;28;20048;-72
2022/11/28 01:11:53;;;;;;;10.45;5.25;;;7.10;99.90;;;;;;5052246;28;20087;-71
2022/11/28 01:14:21;;;;;;;8.70;4.90;;;7.10;99.90;;;;;;5048507;28;20397;-71
2022/11/28 01:16:47;;;;;;;8.80;4.65;;;7.20;99.90;;;;;;5019135;28;20041;-71
2022/11/28 01:19:13;;;;;;;9.48;4.72;;;7.20;99.90;;;;;;5055078;28;20492;-71
2022/11/28 01:21:39;;;;;;;8.77;5.00;;;7.20;99.90;;;;;;5053394;28;20495;-71
2022/11/28 01:24:05;;;;;;;6.00;3.10;;;7.10;99.90;;;;;;5052830;28;20488;-71
2022/11/28 01:26:31;;;;;;;7.50;4.28;;;7.20;99.90;;;;;;5054818;28;20115;-71
2022/11/28 01:28:58;;;;;;;9.07;4.75;;;7.30;99.90;;;;;;5075234;28;20119;-71
2022/11/28 01:31:26;;;;;;;8.55;4.88;;;7.20;99.90;;;;;;5061837;28;20045;-72
2022/11/28 01:33:52;;;;;;;10.77;4.97;;;7.20;99.90;;;;;;5053346;28;20493;-71
2022/11/28 01:36:19;;;;;;;8.80;4.53;;;7.20;99.90;;;;;;5075173;28;20044;-71
2022/11/28 01:38:46;;;;;;;8.00;3.78;;;7.30;99.90;;;;;;5058363;28;20049;-72
2022/11/28 01:41:12;;;;;;;10.13;5.15;;;7.10;99.90;;;;;;5056918;28;20039;-71
2022/11/28 01:44:10;;;;;;;10.77;4.20;;;7.30;99.90;;;;;;5075030;28;20055;-71
2022/11/28 01:46:36;;;;;;;10.23;4.80;;;7.30;99.90;;;;;;5056960;28;20044;-72
2022/11/28 01:49:08;;;;;;;6.78;3.63;;;7.20;99.90;;;;;;5074101;28;20037;-72
2022/11/28 01:51:34;;;;;;;8.47;4.23;;;7.30;99.90;;;;;;5056770;28;20045;-71
2022/11/28 01:54:01;;;;;;;7.72;3.78;;;7.30;99.90;;;;;;5058186;28;20762;-71
2022/11/28 01:56:34;;;;;;;7.65;3.85;;;7.30;99.90;;;;;;5058329;28;20048;-72
2022/11/28 01:59:05;;;;;;;9.18;4.28;;;7.40;99.90;;;;;;5058217;28;20052;-71
2022/11/28 02:01:31;;;;;;;7.18;3.97;;;7.40;99.90;;;;;;5068944;28;20044;-71
2022/11/28 02:03:58;;;;;;;9.07;4.45;;;7.30;99.90;;;;;;5057564;28;20079;-71
2022/11/28 02:06:25;;;;;;;7.65;3.92;;;7.30;99.90;;;;;;5069200;28;20041;-71
2022/11/28 02:08:54;;;;;;;10.65;6.22;;;7.30;99.90;;;;;;5057767;28;20082;-71
2022/11/28 02:11:57;;;;;;;9.68;5.28;;;7.20;99.90;;;;;;5072254;28;20060;-71
2022/11/28 02:14:25;;;;;;;9.05;5.35;;;7.20;99.90;;;;;;5039928;28;20431;-71
2022/11/28 02:17:11;;;;;;;11.38;6.15;;;7.20;99.90;;;;;;5039742;28;20527;-71
2022/11/28 02:19:52;;;;;;;11.15;5.57;;;7.20;99.90;;;;;;5057320;28;20131;-71
2022/11/28 02:22:18;;;;;;;8.93;4.47;;;7.10;99.90;;;;;;5073093;28;20055;-71
2022/11/28 02:25:02;;;;;;;13.52;6.28;;;7.20;99.90;;;;;;5059703;28;20490;-71
2022/11/28 02:27:42;;;;;;;9.88;6.20;;;7.20;99.90;;;;;;5037272;28;20044;-71
2022/11/28 02:30:24;;;;;;;11.48;6.10;;;7.20;99.90;;;;;;5032827;28;20397;-71
2022/11/28 02:32:56;;;;;;;11.85;5.38;;;7.10;99.90;;;;;;5051762;28;20025;-72
2022/11/28 02:35:51;;;;;;;11.05;5.28;;;7.10;99.90;;;;;;5033070;28;20090;-72
2022/11/28 02:38:26;;;;;;;10.20;5.00;;;7.20;99.90;;;;;;5046178;28;20037;-72
2022/11/28 02:41:10;;;;;;;12.52;6.15;;;7.20;99.90;;;;;;5049566;28;20120;-72
2022/11/28 02:43:57;;;;;;;9.52;4.80;;;7.20;99.90;;;;;;5044896;28;20045;-72
2022/11/28 02:46:52;;;;;;;10.35;5.55;;;7.20;99.90;;;;;;5026046;28;20472;-72
2022/11/28 02:49:38;;;;;;;11.40;6.03;;;7.30;99.90;;;;;;5026258;28;20430;-71
2022/11/28 02:52:28;;;;;;;10.02;5.38;;;7.20;99.90;;;;;;5041348;28;20045;-72
2022/11/28 02:54:55;;;;;;;11.40;6.38;;;7.30;99.90;;;;;;5061331;28;20366;-72
2022/11/28 02:57:20;;;;;;;7.10;3.85;;;7.20;99.90;;;;;;5025937;28;20094;-71
2022/11/28 02:59:49;;;;;;;7.40;4.20;;;7.30;99.90;;;;;;5034997;28;20123;-72
2022/11/28 03:02:27;;;;;;;11.05;5.68;;;7.40;99.90;;;;;;5047029;28;20040;-71
2022/11/28 03:05:06;;;;;;;9.43;5.40;;;7.40;99.90;;;;;;5063661;28;20060;-71
2022/11/28 03:08:15;;;;;;;10.40;5.97;;;7.20;99.90;;;;;;5072020;28;20048;-71
2022/11/28 03:10:51;;;;;;;11.15;6.32;;;7.30;99.90;;;;;;5063196;28;20063;-71
2022/11/28 03:13:37;;;;;;;9.05;4.63;;;7.20;99.90;;;;;;5052883;28;20048;-71
2022/11/28 03:16:20;;;;;;;8.13;4.30;;;7.30;99.90;;;;;;5038454;28;20045;-71
2022/11/28 03:19:03;;;;;;;11.68;6.57;;;7.30;99.90;;;;;;5049277;28;20052;-71
2022/11/28 03:21:41;;;;;;;11.30;6.85;;;7.20;99.90;;;;;;5053015;28;20076;-71
2022/11/28 03:24:34;;;;;;;9.32;5.28;;;7.20;99.90;;;;;;5039843;28;20048;-71
2022/11/28 03:27:02;;;;;;;;;;;7.30;99.90;;;;;;5058800;28;20055;-72
2022/11/28 03:29:51;;;;;;;10.65;6.50;;;7.30;99.90;;;;;;5043314;28;20274;-71
2022/11/28 03:32:44;;;;;;;11.43;5.55;;;7.30;99.90;;;;;;5032866;28;20040;-72
2022/11/28 03:35:16;;;;;;;10.52;6.05;;;7.20;99.90;;;;;;5050493;28;20132;-71
2022/11/28 03:37:49;;;;;;;12.00;7.53;;;7.30;99.90;;;;;;5033186;28;20503;-72
2022/11/28 03:40:19;;;;;;;11.35;7.13;;;7.30;99.90;;;;;;5052076;28;20055;-71
2022/11/28 03:42:57;;;;;;;13.77;6.95;;;7.30;99.90;;;;;;5052793;28;20048;-71
2022/11/28 03:45:25;;;;;;;12.25;6.75;;;7.20;99.90;;;;;;5045361;28;20044;-71
2022/11/28 03:48:03;;;;;;;11.93;7.85;;;7.30;99.90;;;;;;5052477;28;20041;-72
2022/11/28 03:50:36;;;;;;;11.35;5.97;;;7.20;99.90;;;;;;5038206;28;20036;-71
2022/11/28 03:53:06;;;;;;;13.55;7.22;;;7.40;99.90;;;;;;5051992;28;20497;-71
2022/11/28 03:55:39;;;;;;;11.52;7.13;;;7.30;99.90;;;;;;5068329;28;20077;-71
2022/11/28 03:58:20;;;;;;;14.68;8.45;;;7.40;99.90;;;;;;5034755;28;20037;-71
2022/11/28 04:01:26;;;;;;;11.77;8.00;;;7.40;99.90;;;;;;5043981;28;20399;-71
2022/11/28 04:04:10;;;;;;;13.70;7.88;;;7.40;99.90;;;;;;5020373;28;20052;-71
2022/11/28 04:06:54;;;;;;;13.23;8.73;;;7.30;99.90;;;;;;5053262;28;20048;-71
2022/11/28 04:09:46;;;;;;;14.05;9.10;;;7.30;99.90;;;;;;5036980;28;20032;-71
2022/11/28 04:12:25;;;;;;;13.50;9.38;;;7.40;99.90;;;;;;5023537;28;20094;-72
2022/11/28 04:14:56;;;;;;;14.13;8.63;;;7.30;99.90;;;;;;5067574;28;20040;-72
2022/11/28 04:17:36;;;;;;;13.77;8.77;;;7.30;99.90;;;;;;5036477;28;20052;-71
2022/11/28 04:20:13;;;;;;;14.75;9.68;;;7.40;99.90;;;;;;5050203;28;20532;-71
2022/11/28 04:22:54;;;;;;;14.48;9.20;;;7.40;99.90;;;;;;5045223;28;20033;-72
2022/11/28 04:25:22;;;;;;;14.88;9.52;;;7.40;99.90;;;;;;5066770;28;20041;-71
2022/11/28 04:27:54;;;;;;;17.92;10.55;;;7.40;99.90;;;;;;5049536;28;20037;-72
2022/11/28 04:30:20;;;;;;;14.98;9.82;;;7.40;99.90;;;;;;5042601;28;20040;-72
2022/11/28 04:32:50;;;;;;;14.00;10.27;;;7.40;99.90;;;;;;5056031;28;20029;-72
2022/11/28 04:35:24;;;;;;;14.40;10.10;;;7.50;99.90;;;;;;5045979;28;20437;-72
2022/11/28 04:37:52;;;;;;;15.93;11.57;;;7.50;99.90;;;;;;5060073;28;20496;-72
2022/11/28 04:40:19;;;;;;;14.85;10.65;;;7.50;99.90;;;;;;5050622;28;20036;-72
2022/11/28 04:42:50;;;;;;;18.15;12.15;;;7.50;99.90;;;;;;5035130;28;20041;-72
2022/11/28 04:45:25;;;;;;;15.73;10.60;;;7.50;99.90;;;;;;5050055;28;20466;-71
2022/11/28 04:47:50;;;;;;;14.80;10.40;;;7.60;99.90;;;;;;5051183;28;20337;-72
2022/11/28 04:50:16;;;;;;;14.63;10.88;;;7.70;99.90;;;;;;5056528;28;20060;-72
2022/11/28 04:52:42;;;;;;;13.98;10.80;;;7.70;99.90;;;;;;5055314;28;20440;-71
2022/11/28 04:55:16;;;;;;;14.07;10.73;;;7.70;99.90;;;;;;5041803;28;20045;-72
2022/11/28 04:57:49;;;;;;;15.68;11.30;;;7.70;99.90;;;;;;5041970;28;20040;-72
2022/11/28 05:00:18;;;;;;;12.02;9.15;;;7.70;99.90;;;;;;5053274;28;20095;-71
2022/11/28 05:02:48;;;;;;;13.77;10.43;;;7.80;99.90;;;;;;5049893;28;20067;-72
2022/11/28 05:05:23;;;;;;;14.50;10.45;;;7.70;99.90;;;;;;5069903;28;20040;-72
2022/11/28 05:07:49;;;;;;;13.45;10.23;;;7.80;99.90;;;;;;5066022;28;20051;-71
2022/11/28 05:10:15;;;;;;;14.20;10.95;;;7.80;99.90;;;;;;5070504;28;20405;-71
2022/11/28 05:12:41;;;;;;;14.93;11.40;;;7.80;99.90;;;;;;5040781;28;20420;-72
2022/11/28 05:15:08;;;;;;;14.38;11.15;;;7.80;99.90;;;;;;5072563;28;20039;-72
2022/11/28 05:17:33;;;;;;;14.10;11.60;;;7.80;99.90;;;;;;5045268;28;20043;-71
2022/11/28 05:19:59;;;;;;;14.75;12.13;;;7.80;99.90;;;;;;5054115;28;20044;-72
2022/11/28 05:22:25;;;;;;;15.27;12.13;;;7.80;99.90;;;;;;5054732;28;20116;-72
2022/11/28 05:24:50;;;;;;;14.57;11.70;;;7.80;99.90;;;;;;5059192;28;20485;-72
2022/11/28 05:27:16;;;;;;;15.68;11.95;;;7.80;99.90;;;;;;5065497;28;20493;-72
2022/11/28 05:29:43;;;;;;;14.40;11.75;;;7.90;99.90;;;;;;5040102;28;20521;-71
2022/11/28 05:32:14;;;;;;;15.80;12.10;;;8.00;99.90;;;;;;5061125;28;20524;-72
2022/11/28 05:34:40;;;;;;;14.60;11.80;;;7.90;99.90;;;;;;5065709;28;20087;-72
2022/11/28 05:37:05;;;;;;;14.75;11.75;;;7.90;99.90;;;;;;5034454;28;20531;-71
2022/11/28 05:39:31;;;;;;;16.17;11.63;;;7.90;99.90;;;;;;5059185;28;20519;-72
2022/11/28 05:41:57;;;;;;;13.30;9.75;;;7.90;99.90;;;;;;5051366;28;20032;-71
2022/11/28 05:44:23;;;;;;;13.80;11.35;;;7.90;99.90;;;;;;5056405;28;20036;-72
2022/11/28 05:46:49;;;;;;;12.75;10.75;;;8.00;99.90;;;;;;5051693;28;20043;-71
2022/11/28 05:49:15;;;;;;;13.63;10.88;;;8.00;99.90;;;;;;5049410;28;20086;-72
2022/11/28 05:51:40;;;;;;;14.82;10.55;;;8.00;99.90;;;;;;5035656;28;20478;-72
2022/11/28 05:54:06;;;;;;;14.98;10.77;;;8.00;99.90;;;;;;5054471;28;20045;-72
2022/11/28 05:56:32;;;;;;;13.88;10.63;;;8.00;99.90;;;;;;5052698;28;20489;-72
2022/11/28 05:58:58;;;;;;;14.07;10.40;;;8.10;99.90;;;;;;5037994;28;20045;-72
2022/11/28 06:01:26;;;;;;;14.85;10.63;;;8.00;99.90;;;;;;5063452;28;20120;-72
2022/11/28 06:03:57;;;;;;;13.10;10.27;;;8.10;99.90;;;;;;5052122;28;20064;-72
2022/11/28 06:06:23;;;;;;;15.57;10.45;;;8.00;99.90;;;;;;5068486;28;20053;-72
2022/11/28 06:08:51;;;;;;;13.10;9.90;;;8.10;99.90;;;;;;5043317;28;20082;-72
2022/11/28 06:11:17;;;;;;;13.63;10.60;;;8.10;99.90;;;;;;5065809;28;20047;-72
2022/11/28 06:13:44;;;;;;;14.90;10.75;;;8.10;99.90;;;;;;5067646;28;20040;-72
2022/11/28 06:16:12;;;;;;;14.40;9.85;;;8.10;99.90;;;;;;5070886;28;20079;-71
2022/11/28 06:18:39;;;;;;;14.75;10.90;;;8.10;99.90;;;;;;5042538;28;20116;-71
2022/11/28 06:21:06;;;;;;;14.70;10.70;;;8.10;99.90;;;;;;5055920;28;20044;-72
2022/11/28 06:23:32;;;;;;;13.55;10.60;;;8.10;99.90;;;;;;5057701;28;20051;-72
2022/11/28 06:26:07;;;;;;;15.07;10.65;;;8.10;99.90;;;;;;5060326;28;20040;-71
2022/11/28 06:28:33;;;;;;;13.20;11.13;;;8.10;99.90;;;;;;5048532;28;20036;-72
2022/11/28 06:30:59;;;;;;;15.40;11.55;;;8.10;99.90;;;;;;5057465;28;20397;-71
2022/11/28 06:33:24;;;;;;;15.05;11.43;;;8.10;99.90;;;;;;5044484;28;20029;-72
2022/11/28 06:35:50;;;;;;;15.70;11.45;;;8.10;99.90;;;;;;5032573;28;20043;-72
2022/11/28 06:38:15;;;;;;;13.93;10.63;;;8.10;99.90;;;;;;5046371;28;20033;-72
2022/11/28 06:40:41;;;;;;;15.93;11.75;;;8.10;99.90;;;;;;5053884;28;20047;-72
2022/11/28 06:43:07;;;;;;;15.70;11.38;;;8.10;99.90;;;;;;5056120;28;20495;-72
2022/11/28 06:45:33;;;;;;;17.35;11.75;;;8.10;99.90;;;;;;5046401;28;20082;-72
2022/11/28 06:47:59;;;;;;;14.57;11.18;;;8.20;99.90;;;;;;5065143;28;20041;-71
2022/11/28 06:50:25;;;;;;;14.05;11.50;;;8.20;99.90;;;;;;5055102;28;20055;-72
2022/11/28 06:52:52;;;;;;;15.55;11.77;;;8.20;99.90;;;;;;5055985;28;20512;-71
2022/11/28 06:55:18;;;;;;;17.23;11.82;;;8.20;99.90;;;;;;5045776;28;20037;-72
2022/11/28 06:57:44;;;;;;;15.95;13.00;;;8.10;99.90;;;;;;5048062;28;20162;-71
2022/11/28 07:00:10;;;;;;;15.23;11.93;;;8.10;99.90;;;;;;5045956;28;20033;-72
2022/11/28 07:02:36;;;;;;;15.07;12.05;;;8.10;99.90;;;;;;5062342;28;20514;-71
2022/11/28 07:05:02;;;;;;;19.08;12.68;;;8.10;99.90;;;;;;5051222;28;20127;-71
2022/11/28 07:07:27;;;;;;;17.35;12.20;;;8.10;99.90;;;;;;5038961;28;20492;-71
2022/11/28 07:09:53;;;;;;;15.60;11.25;;;8.10;99.90;;;;;;5069060;28;20480;-71
2022/11/28 07:12:18;;;;;;;15.20;10.88;;;8.20;99.90;;;;;;5067421;28;20143;-72
2022/11/28 07:14:44;;;;;;;14.35;10.45;;;8.20;99.90;;;;;;5070968;28;20446;-71
2022/11/28 07:17:09;;;;;;;15.15;10.90;;;8.20;99.90;;;;;;5038185;28;20044;-72
2022/11/28 07:19:35;;;;;;;14.60;10.60;;;8.30;99.90;;;;;;5069539;28;20060;-71
2022/11/28 07:22:00;;;;;;;14.05;11.00;;;8.20;99.90;;;;;;5021184;28;20471;-71
2022/11/28 07:24:26;;;;;;;15.27;10.63;;;8.20;99.90;;;;;;5049988;28;20437;-71
2022/11/28 07:26:52;;;;;;;16.05;11.30;;;8.20;99.90;;;;;;5041023;28;20123;-71
2022/11/28 07:29:18;;;;;;;16.25;11.35;;;8.20;99.90;;;;;;5050771;28;20079;-71
2022/11/28 07:31:44;;;;;;;14.55;11.38;;;8.20;99.90;;;;;;5053234;28;20042;-71
2022/11/28 07:34:10;;;;;;;14.10;10.70;;;8.20;99.90;;;;;;5033528;28;20037;-71
2022/11/28 07:36:36;;;;;;;16.73;10.40;;;8.20;99.90;;;;;;5061819;28;20033;-71
2022/11/28 07:39:04;;;;;;;13.27;10.38;;;8.20;99.90;;;;;;5041387;28;20044;-72
2022/11/28 07:41:30;;;;;;;15.60;10.40;;;8.20;99.90;;;;;;5033709;28;20041;-72
2022/11/28 07:43:58;;;;;;;13.10;10.43;;;8.20;99.90;;;;;;5051447;28;20098;-71
2022/11/28 07:46:25;;;;;;;13.35;9.40;;;8.10;99.90;;;;;;5050966;28;20037;-71
2022/11/28 07:48:51;;;;;;;13.27;9.95;;;8.10;99.90;;;;;;5051844;28;20112;-72
2022/11/28 07:51:24;;;;;;;14.57;9.95;;;8.10;99.90;;;;;;5041022;28;20128;-72
2022/11/28 07:53:49;;;;;;;13.32;9.10;;;8.20;99.90;;;;;;5031436;28;20083;-72
2022/11/28 07:56:21;;;;;;;12.52;9.38;;;8.20;99.90;;;;;;5035335;28;20084;-71
2022/11/28 07:58:47;;;;;;;11.82;8.70;;;8.20;99.90;;;;;;5027237;28;20557;-72
2022/11/28 08:01:16;;;;;;;12.38;9.05;;;8.20;99.90;;;;;;5034476;28;20045;-72
2022/11/28 08:03:45;;;;;;;12.05;8.60;;;8.20;99.90;;;;;;5035547;28;20072;-71
2022/11/28 08:06:12;;;;;;;12.07;8.80;;;8.20;99.90;;;;;;5052105;28;20076;-72
2022/11/28 08:08:37;;;;;;;11.13;8.45;;;8.20;99.90;;;;;;5042458;28;20021;-72
2022/11/28 08:11:05;;;;;;;11.13;8.95;;;8.20;99.90;;;;;;5054372;28;20548;-71
2022/11/28 08:13:31;;;;;;;10.82;8.02;;;8.20;99.90;;;;;;5057566;28;20025;-71
2022/11/28 08:15:56;;;;;;;12.50;8.32;;;8.20;99.90;;;;;;5040793;28;20514;-71
2022/11/28 08:18:23;;;;;;;11.93;8.20;;;8.20;99.90;;;;;;5050079;28;20433;-72
2022/11/28 08:20:48;;;;;;;14.32;8.80;;;8.20;99.90;;;;;;5053480;28;20045;-72
2022/11/28 08:23:14;;;;;;;11.20;8.10;;;8.20;99.90;;;;;;5060564;28;20040;-72
2022/11/28 08:25:40;;;;;;;10.00;7.18;;;8.30;99.90;;;;;;5041319;28;20044;-71
2022/11/28 08:28:05;;;;;;;11.93;7.15;;;8.20;99.90;;;;;;5033045;28;20387;-71
2022/11/28 08:30:31;;;;;;;10.57;7.78;;;8.30;99.90;;;;;;5049371;28;20033;-72
2022/11/28 08:32:57;;;;;;;10.00;6.97;;;8.20;99.90;;;;;;5033479;28;20045;-72
2022/11/28 08:35:22;;;;;;;10.77;7.25;;;8.30;99.90;;;;;;5054843;28;20044;-72
2022/11/28 08:37:48;;;;;;;10.77;7.07;;;8.30;99.90;;;;;;5050138;28;20041;-72
2022/11/28 08:40:14;;;;;;;11.15;7.45;;;8.20;99.90;;;;;;5040649;28;20053;-71
2022/11/28 08:42:40;;;;;;;10.63;7.47;;;8.30;99.90;;;;;;5051179;28;20033;-71
2022/11/28 08:45:06;;;;;;;9.70;6.10;;;8.20;99.90;;;;;;5064311;28;20037;-72
2022/11/28 08:47:32;;;;;;;9.40;6.13;;;8.30;99.90;;;;;;5033996;28;20044;-71
2022/11/28 08:49:57;;;;;;;9.50;6.10;;;8.30;99.90;;;;;;5058460;28;20094;-72
2022/11/28 08:52:24;;;;;;;10.70;6.53;;;8.30;99.90;;;;;;5037709;28;20447;-72
2022/11/28 08:54:50;;;;;;;9.02;6.00;;;8.30;99.90;;;;;;5015508;28;20030;-71
2022/11/28 08:57:16;;;;;;;8.95;6.05;;;8.30;99.90;;;;;;5052413;28;20087;-71
2022/11/28 08:59:41;;;;;;;8.50;6.07;;;8.30;99.90;;;;;;5051441;28;20058;-75
2022/11/28 09:02:11;;;;;;;8.13;5.18;;;8.30;99.90;;;;;;5071424;28;20037;-70
2022/11/28 09:04:36;;;;;;;8.27;5.50;;;8.30;99.90;;;;;;5055013;28;20493;-70
2022/11/28 09:07:03;;;;;;;9.35;5.60;;;8.30;99.90;;;;;;5034447;28;20087;-71
2022/11/28 09:09:28;;;;;;;7.63;4.97;;;8.30;99.90;;;;;;5062297;28;20086;-71
2022/11/28 09:11:54;;;;;;;8.02;5.05;;;8.30;99.90;;;;;;5070378;28;20119;-71
2022/11/28 09:14:19;;;;;;;9.18;5.60;;;8.30;99.90;;;;;;5054246;28;20501;-70
2022/11/28 09:16:45;;;;;;;8.50;4.93;;;8.30;99.90;;;;;;5055023;28;20041;-71
2022/11/28 09:19:11;;;;;;;7.50;4.70;;;8.30;99.90;;;;;;5068884;28;20050;-70
2022/11/28 09:21:37;;;;;;;7.40;4.85;;;8.30;99.90;;;;;;5038435;28;20493;-71
2022/11/28 09:24:03;;;;;;;7.78;5.38;;;8.30;99.90;;;;;;5031634;28;20045;-70
2022/11/28 09:26:29;;;;;;;7.32;4.68;;;8.30;99.90;;;;;;5059617;28;20047;-71
2022/11/28 09:28:54;;;;;;;8.55;5.18;;;8.30;99.90;;;;;;5052073;28;20032;-71
2022/11/28 09:31:20;;;;;;;7.15;4.22;;;8.30;99.90;;;;;;5058684;28;20034;-71
2022/11/28 09:33:48;;;;;;;7.68;4.63;;;8.30;99.90;;;;;;5051310;28;20508;-71
2022/11/28 09:36:16;;;;;;;7.82;4.28;;;8.30;99.90;;;;;;5044492;28;20047;-71
2022/11/28 09:38:42;;;;;;;6.47;4.10;;;8.30;99.90;;;;;;5040486;28;20051;-71
2022/11/28 09:41:45;;;;;;;8.52;4.55;;;8.30;99.90;;;;;;5071450;28;20040;-71
2022/11/28 09:44:25;;;;;;;7.00;4.07;;;8.30;99.90;;;;;;5052518;28;20540;-71
2022/11/28 09:46:55;;;;;;;6.82;3.88;;;8.40;99.90;;;;;;5029399;28;20056;-71
2022/11/28 09:49:36;;;;;;;6.93;4.45;;;8.30;99.90;;;;;;5024347;28;20416;-71
2022/11/28 09:52:12;;;;;;;6.10;3.65;;;8.40;99.90;;;;;;5043074;28;20045;-70
2022/11/28 09:54:45;;;;;;;7.35;4.28;;;8.40;99.90;;;;;;5067308;28;20094;-71
2022/11/28 09:57:18;;;;;;;6.35;3.85;;;8.40;99.90;;;;;;5063732;28;20061;-71
2022/11/28 09:59:45;;;;;;;7.63;3.90;;;8.40;99.90;;;;;;5037776;28;20048;-71
2022/11/28 10:02:41;;;;;;;7.60;3.92;;;8.40;99.90;;;;;;5052243;28;20090;-70
2022/11/28 10:05:16;;;;;;;6.85;4.05;;;8.40;99.90;;;;;;5053361;28;20052;-71
2022/11/28 10:08:14;;;;;;;6.97;4.13;;;8.50;99.90;;;;;;5050354;28;21845;-71
2022/11/28 10:10:59;;;;;;;6.72;4.18;;;8.50;99.90;;;;;;5068658;28;20089;-70
2022/11/28 10:13:59;;;;;;;7.28;4.50;;;8.50;99.90;;;;;;5025298;28;20040;-70
2022/11/28 10:16:35;;;;;;;6.47;4.00;;;8.40;99.90;;;;;;5065211;28;20051;-70
2022/11/28 10:19:08;;;;;;;7.25;4.40;;;8.50;99.90;;;;;;5067283;28;20060;-71
2022/11/28 10:21:45;;;;;;;6.68;4.13;;;8.50;99.90;;;;;;5062095;28;20128;-70
2022/11/28 10:24:16;;;;;;;6.82;3.70;;;8.60;99.90;;;;;;5052662;28;20041;-70
2022/11/28 10:26:47;;;;;;;7.70;4.80;;;8.50;99.90;;;;;;5043386;28;20075;-71
2022/11/28 10:29:27;;;;;;;6.85;4.55;;;8.50;99.90;;;;;;5041629;28;20112;-71
2022/11/28 10:31:56;;;;;;;7.60;4.57;;;8.50;99.90;;;;;;5043575;28;20397;-71
2022/11/28 10:34:39;;;;;;;8.70;4.97;;;8.50;99.90;;;;;;5051400;28;20116;-71
2022/11/28 10:37:24;;;;;;;7.10;4.68;;;8.50;99.90;;;;;;5066442;28;20123;-71
2022/11/28 10:39:49;;;;;;;7.35;4.75;;;8.50;99.90;;;;;;5051381;28;20040;-71
2022/11/28 10:42:40;;;;;;;6.70;4.28;;;8.70;99.90;;;;;;5055286;28;20047;-71
2022/11/28 10:45:12;;;;;;;7.43;4.57;;;8.60;99.90;;;;;;5038887;28;20041;-71
2022/11/28 10:48:06;;;;;;;7.30;4.57;;;8.70;99.90;;;;;;5048219;28;20146;-71
2022/11/28 10:50:52;;;;;;;6.95;4.53;;;8.60;99.90;;;;;;5060967;28;20164;-71
2022/11/28 10:53:39;;;;;;;6.95;4.57;;;8.60;99.90;;;;;;5038175;28;20044;-71
2022/11/28 10:56:09;;;;;;;8.25;5.22;;;8.60;99.90;;;;;;5041323;28;20037;-71
2022/11/28 10:58:47;;;;;;;8.30;5.03;;;8.70;99.90;;;;;;5035619;28;20037;-71
2022/11/28 11:01:13;;;;;;;7.82;4.45;;;8.60;99.90;;;;;;5032506;28;20085;-71
2022/11/28 11:03:40;;;;;;;8.38;4.78;;;8.60;99.90;;;;;;5053441;28;20470;-71
2022/11/28 11:06:06;;;;;;;6.97;4.63;;;8.60;99.90;;;;;;5053552;28;20045;-71
2022/11/28 11:08:37;;;;;;;7.72;4.55;;;8.70;99.90;;;;;;5050868;28;20393;-71
2022/11/28 11:11:14;;;;;;;7.33;4.47;;;8.70;99.90;;;;;;5035328;28;20032;-72
2022/11/28 11:14:01;;;;;;;7.38;4.50;;;8.70;99.90;;;;;;5034462;28;20040;-72
2022/11/28 11:16:50;;;;;;;8.20;5.35;;;8.70;99.90;;;;;;5050256;28;20037;-71
2022/11/28 11:19:25;;;;;;;7.97;5.10;;;8.60;99.90;;;;;;5052676;28;20127;-71
2022/11/28 11:22:04;;;;;;;7.97;4.95;;;8.60;99.90;;;;;;5036614;28;20049;-71
2022/11/28 11:24:30;;;;;;;8.38;4.68;;;8.60;99.90;;;;;;5036459;28;20033;-71
2022/11/28 11:27:20;;;;;;;6.75;4.53;;;8.70;99.90;;;;;;5035999;28;20486;-71
2022/11/28 11:29:45;;;;;;;9.30;5.15;;;8.60;99.90;;;;;;5035987;28;20047;-71
2022/11/28 11:32:28;;;;;;;7.97;5.00;;;8.70;99.90;;;;;;5035734;28;20036;-72
2022/11/28 11:34:56;;;;;;;8.13;5.10;;;8.70;99.90;;;;;;5025763;28;20091;-72
2022/11/28 11:37:35;;;;;;;7.50;4.80;;;8.60;99.90;;;;;;5058128;28;20075;-71
2022/11/28 11:40:04;;;;;;;9.05;5.88;;;8.60;99.90;;;;;;5057071;28;20040;-71
2022/11/28 11:42:31;;;;;;;8.73;5.50;;;8.60;99.90;;;;;;5048906;28;20036;-72
2022/11/28 11:45:33;;;;;;;9.07;6.00;;;8.60;99.90;;;;;;5032439;28;20119;-71
2022/11/28 11:47:59;;;;;;;7.65;5.13;;;8.70;99.90;;;;;;5051778;28;20045;-72
2022/11/28 11:50:28;;;;;;;7.88;5.22;;;8.70;99.90;;;;;;5050508;28;20507;-71
2022/11/28 11:53:14;;;;;;;8.00;5.50;;;8.80;99.90;;;;;;5052353;28;20455;-72
2022/11/28 11:55:50;;;;;;;8.57;5.95;;;8.70;99.90;;;;;;5066060;28;20032;-71
2022/11/28 11:58:33;;;;;;;9.77;5.55;;;8.70;99.90;;;;;;5051408;28;20040;-72
2022/11/28 12:01:00;;;;;;;8.45;5.70;;;8.80;99.90;;;;;;5035420;28;20086;-71
2022/11/28 12:03:34;;;;;;;9.05;5.70;;;8.70;99.90;;;;;;5064242;28;20056;-72
2022/11/28 12:06:05;;;;;;;8.70;5.70;;;8.80;99.90;;;;;;5039094;28;20036;-72
2022/11/28 12:08:40;;;;;;;9.25;5.80;;;8.80;99.90;;;;;;5044005;28;20037;-72
2022/11/28 12:11:18;;;;;;;8.27;5.65;;;8.80;99.90;;;;;;5025325;28;20079;-71
2022/11/28 12:13:44;;;;;;;9.05;6.40;;;8.80;99.90;;;;;;5034605;28;20086;-71
2022/11/28 12:16:28;;;;;;;9.02;6.53;;;8.80;99.90;;;;;;5034174;28;20497;-71
2022/11/28 12:19:15;;;;;;;8.65;5.78;;;8.80;99.90;;;;;;5048840;28;20040;-71
2022/11/28 12:21:52;;;;;;;9.68;5.80;;;8.80;99.90;;;;;;5035171;28;20036;-71
2022/11/28 12:24:40;;;;;;;8.98;6.18;;;8.80;99.90;;;;;;5059633;28;20075;-71
2022/11/28 12:27:27;;;;;;;10.30;6.25;;;8.80;99.90;;;;;;5035249;28;20041;-71
2022/11/28 12:30:15;;;;;;;8.82;5.90;;;8.80;99.90;;;;;;5035542;28;20037;-71
2022/11/28 12:32:46;;;;;;;9.32;6.07;;;8.80;99.90;;;;;;5033365;28;20041;-71
2022/11/28 12:35:18;;;;;;;9.40;5.80;;;8.80;99.90;;;;;;5051459;28;20488;-71
2022/11/28 12:38:38;;;;;;;8.38;5.85;;;8.80;99.90;;;;;;5052121;28;20392;-71
2022/11/28 12:41:06;;;;;;;9.07;6.18;;;8.80;99.90;;;;;;4990041;28;20057;-71
2022/11/28 12:44:18;;;;;;;8.68;5.35;;;8.90;99.90;;;;;;5024351;28;20045;-71
2022/11/28 12:46:54;;;;;;;8.15;5.28;;;8.90;99.90;;;;;;5012296;28;20386;-71
2022/11/28 12:49:41;;;;;;;8.52;5.65;;;9.00;99.90;;;;;;5070602;28;20093;-71
2022/11/28 12:52:32;;;;;;;9.88;6.72;;;9.00;99.90;;;;;;5071869;28;20068;-71
2022/11/28 12:55:00;;;;;;;8.70;5.68;;;8.90;99.90;;;;;;5037695;28;20033;-71
2022/11/28 12:57:56;;;;;;;9.98;5.85;;;8.90;99.90;;;;;;5050391;28;20141;-72
2022/11/28 13:00:26;;;;;;;8.93;5.90;;;8.90;99.90;;;;;;5055442;28;20457;-71
2022/11/28 13:03:25;;;;;;;9.60;6.70;;;8.90;99.90;;;;;;5054910;28;20063;-71
2022/11/28 13:06:01;;;;;;;8.77;6.13;;;8.90;99.90;;;;;;5050703;28;20109;-71
2022/11/28 13:08:42;;;;;;;8.20;5.97;;;8.90;99.90;;;;;;5038478;28;20071;-71
2022/11/28 13:11:34;;;;;;;9.65;5.22;;;8.90;99.90;;;;;;5031399;28;20470;-71
2022/11/28 13:14:44;;;;;;;7.68;5.28;;;8.90;99.90;;;;;;5026261;28;20046;-71
2022/11/28 13:17:26;;;;;;;8.93;5.63;;;8.90;99.90;;;;;;5041874;28;20048;-71